createdAt,value
2018-12-18T00:00:39.961Z,40.17
2018-12-18T00:03:07.595Z,47.70
2018-12-18T00:05:35.131Z,40.70
2018-12-18T00:08:02.825Z,40.23
2018-12-18T00:10:36.053Z,41.33
2018-12-18T00:13:03.604Z,36.30
2018-12-18T00:15:31.177Z,38.23
2018-12-18T00:17:58.681Z,39.63
2018-12-18T00:20:26.268Z,37.00
2018-12-18T00:22:53.789Z,37.43
2018-12-18T00:25:21.345Z,39.40
2018-12-18T00:27:49.531Z,38.63
2018-12-18T00:30:17.076Z,34.20
2018-12-18T00:32:44.748Z,37.00
2018-12-18T00:35:12.293Z,36.67
2018-12-18T00:37:39.893Z,31.80
2018-12-18T00:40:07.583Z,37.43
2018-12-18T00:42:35.167Z,36.37
2018-12-18T00:45:02.719Z,36.10
2018-12-18T00:47:30.233Z,36.53
2018-12-18T00:49:57.781Z,38.47
2018-12-18T00:52:25.303Z,46.23
2018-12-18T00:54:52.874Z,38.90
2018-12-18T00:57:20.403Z,34.77
2018-12-18T00:59:48.041Z,48.67
2018-12-18T01:02:15.533Z,38.30
2018-12-18T01:04:45.065Z,42.30
2018-12-18T01:07:12.581Z,43.73
2018-12-18T01:09:40.153Z,41.03
2018-12-18T01:12:07.801Z,38.53
2018-12-18T01:14:35.406Z,39.17
2018-12-18T01:17:02.931Z,35.83
2018-12-18T01:19:34.835Z,43.33
2018-12-18T01:22:02.375Z,38.40
2018-12-18T01:24:30.786Z,38.93
2018-12-18T01:26:58.335Z,44.17
2018-12-18T01:29:25.908Z,40.77
2018-12-18T01:31:53.585Z,39.40
2018-12-18T01:34:21.138Z,43.80
2018-12-18T01:36:48.718Z,40.50
2018-12-18T01:39:16.223Z,41.77
2018-12-18T01:41:43.759Z,40.93
2018-12-18T01:44:11.339Z,36.63
2018-12-18T01:46:38.867Z,31.53
2018-12-18T01:49:06.569Z,36.67
2018-12-18T01:51:34.074Z,40.20
2018-12-18T01:54:02.048Z,40.13
2018-12-18T01:56:29.569Z,37.30
2018-12-18T01:58:57.163Z,32.53
2018-12-18T02:01:24.653Z,35.30
2018-12-18T02:03:52.294Z,36.63
2018-12-18T02:06:19.871Z,41.60
2018-12-18T02:08:47.361Z,43.73
2018-12-18T02:11:14.902Z,41.37
2018-12-18T02:13:42.396Z,34.43
2018-12-18T02:16:10.248Z,37.27
2018-12-18T02:18:37.821Z,33.60
2018-12-18T02:21:05.402Z,39.87
2018-12-18T02:23:33.260Z,38.13
2018-12-18T02:26:00.828Z,35.73
2018-12-18T02:28:28.401Z,38.07
2018-12-18T02:30:56.003Z,35.60
2018-12-18T02:33:23.525Z,37.17
2018-12-18T02:35:51.141Z,36.13
2018-12-18T02:38:18.775Z,37.13
2018-12-18T02:40:46.369Z,38.33
2018-12-18T02:43:13.866Z,38.10
2018-12-18T02:45:41.387Z,38.25
2018-12-18T02:48:09.054Z,34.77
2018-12-18T02:50:36.568Z,35.53
2018-12-18T02:53:05.497Z,34.92
2018-12-18T02:55:33.216Z,35.80
2018-12-18T02:58:00.728Z,37.47
2018-12-18T03:00:28.270Z,34.80
2018-12-18T03:02:55.810Z,38.63
2018-12-18T03:05:23.393Z,37.10
2018-12-18T03:07:50.945Z,35.53
2018-12-18T03:10:18.636Z,37.13
2018-12-18T03:12:46.151Z,35.63
2018-12-18T03:15:13.750Z,41.80
2018-12-18T03:17:41.305Z,34.83
2018-12-18T03:20:08.887Z,36.53
2018-12-18T03:22:36.404Z,38.70
2018-12-18T03:25:04.545Z,36.03
2018-12-18T03:27:32.088Z,37.83
2018-12-18T03:29:59.716Z,40.90
2018-12-18T03:32:28.000Z,35.43
2018-12-18T03:34:55.600Z,35.83
2018-12-18T03:37:23.206Z,41.70
2018-12-18T03:39:50.727Z,39.40
2018-12-18T03:42:18.274Z,34.37
2018-12-18T03:44:45.809Z,39.50
2018-12-18T03:47:13.386Z,40.63
2018-12-18T03:49:40.962Z,32.13
2018-12-18T03:52:08.447Z,40.00
2018-12-18T03:54:35.992Z,34.00
2018-12-18T03:57:03.506Z,36.00
2018-12-18T03:59:30.998Z,38.20
2018-12-18T04:01:58.602Z,36.20
2018-12-18T04:04:26.129Z,35.90
2018-12-18T04:06:53.648Z,33.53
2018-12-18T04:09:21.202Z,32.37
2018-12-18T04:11:54.470Z,36.30
2018-12-18T04:14:22.025Z,35.47
2018-12-18T04:16:49.544Z,33.40
2018-12-18T04:19:17.139Z,35.30
2018-12-18T04:21:44.718Z,35.70
2018-12-18T04:24:12.216Z,35.03
2018-12-18T04:26:39.710Z,35.47
2018-12-18T04:29:07.247Z,34.40
2018-12-18T04:31:34.796Z,38.23
2018-12-18T04:34:02.327Z,39.07
2018-12-18T04:36:29.904Z,37.80
2018-12-18T04:38:57.428Z,34.67
2018-12-18T04:41:24.926Z,37.70
2018-12-18T04:43:52.541Z,38.43
2018-12-18T04:46:20.031Z,40.33
2018-12-18T04:48:47.547Z,37.50
2018-12-18T04:51:15.076Z,43.40
2018-12-18T04:53:42.585Z,35.80
2018-12-18T04:56:10.244Z,33.23
2018-12-18T04:58:37.812Z,36.27
2018-12-18T05:01:05.389Z,39.97
2018-12-18T05:03:32.920Z,40.43
2018-12-18T05:06:00.566Z,38.27
2018-12-18T05:08:28.094Z,38.67
2018-12-18T05:10:55.601Z,37.23
2018-12-18T05:13:23.126Z,40.87
2018-12-18T05:15:50.715Z,35.70
2018-12-18T05:18:18.215Z,34.27
2018-12-18T05:20:45.877Z,37.42
2018-12-18T05:23:14.151Z,34.93
2018-12-18T05:25:41.694Z,36.70
2018-12-18T05:28:09.250Z,36.13
2018-12-18T05:30:36.763Z,34.90
2018-12-18T05:33:04.294Z,37.23
2018-12-18T05:35:32.411Z,34.67
2018-12-18T05:37:59.899Z,42.30
2018-12-18T05:40:27.424Z,34.13
2018-12-18T05:42:55.011Z,34.00
2018-12-18T05:45:22.575Z,37.70
2018-12-18T05:47:50.117Z,32.23
2018-12-18T05:50:17.801Z,35.00
2018-12-18T05:52:45.363Z,34.10
2018-12-18T05:55:12.878Z,32.73
2018-12-18T05:57:40.375Z,31.87
2018-12-18T06:00:08.061Z,40.53
2018-12-18T06:02:35.653Z,37.37
2018-12-18T06:05:03.605Z,35.30
2018-12-18T06:07:31.247Z,32.17
2018-12-18T06:09:58.757Z,35.07
2018-12-18T06:12:26.959Z,33.83
2018-12-18T06:14:54.452Z,34.30
2018-12-18T06:17:22.300Z,36.77
2018-12-18T06:19:49.881Z,35.43
2018-12-18T06:22:17.459Z,38.80
2018-12-18T06:24:44.987Z,35.30
2018-12-18T06:27:12.513Z,33.23
2018-12-18T06:29:40.089Z,34.53
2018-12-18T06:32:07.649Z,37.80
2018-12-18T06:34:35.204Z,33.93
2018-12-18T06:37:02.776Z,39.10
2018-12-18T06:39:30.329Z,34.50
2018-12-18T06:41:57.982Z,32.83
2018-12-18T06:44:25.555Z,39.60
2018-12-18T06:46:53.234Z,39.07
2018-12-18T06:49:20.742Z,40.27
2018-12-18T06:51:48.266Z,45.63
2018-12-18T06:54:15.818Z,38.63
2018-12-18T06:56:43.539Z,38.10
2018-12-18T06:59:11.099Z,39.40
2018-12-18T07:01:38.646Z,39.43
2018-12-18T07:04:06.172Z,36.37
2018-12-18T07:06:33.813Z,37.87
2018-12-18T07:09:01.476Z,39.37
2018-12-18T07:11:29.043Z,34.40
2018-12-18T07:13:56.614Z,35.97
2018-12-18T07:16:24.165Z,40.40
2018-12-18T07:18:51.689Z,43.87
2018-12-18T07:21:19.225Z,41.50
2018-12-18T07:23:46.761Z,39.77
2018-12-18T07:26:14.844Z,38.67
2018-12-18T07:28:42.426Z,43.73
2018-12-18T07:31:09.998Z,42.07
2018-12-18T07:33:37.530Z,38.73
2018-12-18T07:36:05.048Z,38.27
2018-12-18T07:38:32.574Z,47.23
2018-12-18T07:41:00.162Z,42.77
2018-12-18T07:43:27.650Z,42.37
2018-12-18T07:45:55.198Z,41.60
2018-12-18T07:48:22.696Z,38.77
2018-12-18T07:50:50.273Z,41.90
2018-12-18T07:53:17.818Z,43.30
2018-12-18T07:55:45.398Z,40.73
2018-12-18T07:58:12.968Z,43.77
2018-12-18T08:00:40.527Z,49.13
2018-12-18T08:03:08.054Z,49.03
2018-12-18T08:05:35.556Z,42.97
2018-12-18T08:08:03.074Z,45.67
2018-12-18T08:10:30.703Z,43.10
2018-12-18T08:12:58.256Z,44.47
2018-12-18T08:15:25.829Z,52.40
2018-12-18T08:17:53.352Z,44.27
2018-12-18T08:20:21.482Z,51.53
2018-12-18T08:22:48.998Z,41.87
2018-12-18T08:25:16.502Z,44.43
2018-12-18T08:27:43.994Z,44.97
2018-12-18T08:30:11.571Z,42.67
2018-12-18T08:32:39.121Z,46.40
2018-12-18T08:35:06.723Z,46.50
2018-12-18T08:37:34.320Z,40.90
2018-12-18T08:40:01.873Z,43.93
2018-12-18T08:42:29.529Z,42.03
2018-12-18T08:44:57.041Z,43.23
2018-12-18T08:47:24.632Z,37.33
2018-12-18T08:49:52.749Z,41.30
2018-12-18T08:52:20.282Z,38.33
2018-12-18T08:54:47.860Z,42.33
2018-12-18T08:57:15.398Z,38.13
2018-12-18T08:59:42.924Z,38.43
2018-12-18T09:02:10.462Z,38.23
2018-12-18T09:04:38.045Z,39.67
2018-12-18T09:07:05.565Z,36.37
2018-12-18T09:09:33.199Z,36.63
2018-12-18T09:12:00.741Z,40.53
2018-12-18T09:14:28.385Z,36.90
2018-12-18T09:17:02.391Z,37.73
2018-12-18T09:19:30.028Z,38.43
2018-12-18T09:21:57.667Z,38.77
2018-12-18T09:24:25.249Z,36.67
2018-12-18T09:26:52.805Z,38.10
2018-12-18T09:29:20.406Z,45.17
2018-12-18T09:31:47.935Z,43.50
2018-12-18T09:34:15.489Z,40.63
2018-12-18T09:36:43.095Z,48.23
2018-12-18T09:39:16.321Z,44.83
2018-12-18T09:41:45.769Z,43.03
2018-12-18T09:44:16.773Z,49.27
2018-12-18T09:46:44.323Z,46.87
2018-12-18T09:49:11.902Z,48.47
2018-12-18T09:51:39.463Z,44.97
2018-12-18T09:54:07.035Z,46.03
2018-12-18T09:56:36.466Z,45.83
2018-12-18T09:59:03.969Z,44.97
2018-12-18T10:01:31.463Z,43.87
2018-12-18T10:03:59.075Z,45.57
2018-12-18T10:06:26.856Z,42.47
2018-12-18T10:08:54.386Z,47.53
2018-12-18T10:11:21.955Z,43.63
2018-12-18T10:13:49.664Z,42.93
2018-12-18T10:16:17.206Z,43.53
2018-12-18T10:18:44.799Z,48.93
2018-12-18T10:21:12.359Z,42.10
2018-12-18T10:23:39.849Z,43.47
2018-12-18T10:26:07.386Z,44.07
2018-12-18T10:28:35.059Z,42.73
2018-12-18T10:31:02.623Z,39.27
2018-12-18T10:33:30.167Z,43.33
2018-12-18T10:36:03.030Z,45.37
2018-12-18T10:38:27.499Z,46.37
2018-12-18T10:40:55.036Z,43.97
2018-12-18T10:43:22.607Z,41.43
2018-12-18T10:45:50.103Z,41.70
2018-12-18T10:48:17.836Z,46.60
2018-12-18T10:50:45.371Z,41.37
2018-12-18T10:53:12.933Z,42.70
2018-12-18T10:55:40.583Z,44.43
2018-12-18T10:58:08.138Z,43.07
2018-12-18T11:00:41.362Z,41.43
2018-12-18T11:03:08.849Z,43.13
2018-12-18T11:05:36.413Z,41.47
2018-12-18T11:08:04.907Z,39.27
2018-12-18T11:10:32.454Z,37.37
2018-12-18T11:13:05.823Z,40.10
2018-12-18T11:15:33.452Z,44.27
2018-12-18T11:18:00.989Z,45.40
2018-12-18T11:20:28.658Z,38.17
2018-12-18T11:22:56.699Z,39.57
2018-12-18T11:25:24.216Z,39.87
2018-12-18T11:27:51.777Z,41.33
2018-12-18T11:30:19.309Z,44.10
2018-12-18T11:32:46.817Z,36.10
2018-12-18T11:35:14.366Z,34.87
2018-12-18T11:37:41.954Z,34.87
2018-12-18T11:40:09.502Z,35.23
2018-12-18T11:42:37.093Z,35.30
2018-12-18T11:45:04.644Z,34.97
2018-12-18T11:47:32.155Z,37.77
2018-12-18T11:49:59.709Z,37.23
2018-12-18T11:52:27.297Z,36.17
2018-12-18T11:54:54.891Z,36.77
2018-12-18T11:57:22.412Z,39.27
2018-12-18T11:59:50.010Z,38.10
2018-12-18T12:02:17.568Z,40.57
2018-12-18T12:04:45.139Z,37.10
2018-12-18T12:07:12.646Z,39.87
2018-12-18T12:09:40.291Z,36.60
2018-12-18T12:12:07.857Z,38.23
2018-12-18T12:14:35.392Z,41.63
2018-12-18T12:17:02.897Z,37.83
2018-12-18T12:19:30.425Z,37.23
2018-12-18T12:21:59.050Z,39.63
2018-12-18T12:24:26.581Z,44.97
2018-12-18T12:26:56.052Z,39.53
2018-12-18T12:29:23.596Z,39.60
2018-12-18T12:31:52.011Z,35.83
2018-12-18T12:34:20.553Z,41.30
2018-12-18T12:36:48.068Z,40.53
2018-12-18T12:39:15.602Z,42.03
2018-12-18T12:41:43.124Z,40.93
2018-12-18T12:44:10.636Z,42.77
2018-12-18T12:46:38.134Z,35.53
2018-12-18T12:49:07.570Z,35.30
2018-12-18T12:51:35.084Z,39.60
2018-12-18T12:54:02.661Z,40.13
2018-12-18T12:56:30.198Z,41.57
2018-12-18T12:58:57.800Z,37.73
2018-12-18T13:01:25.350Z,37.83
2018-12-18T13:03:52.845Z,36.80
2018-12-18T13:06:20.397Z,37.73
2018-12-18T13:08:47.969Z,37.27
2018-12-18T13:11:15.551Z,33.87
2018-12-18T13:13:43.038Z,38.87
2018-12-18T13:16:10.806Z,40.60
2018-12-18T13:18:38.343Z,33.40
2018-12-18T13:21:05.901Z,35.97
2018-12-18T13:23:33.403Z,35.57
2018-12-18T13:26:00.975Z,38.53
2018-12-18T13:28:28.495Z,32.70
2018-12-18T13:30:56.115Z,37.30
2018-12-18T13:33:23.657Z,32.17
2018-12-18T13:35:51.214Z,30.07
2018-12-18T13:38:18.745Z,34.43
2018-12-18T13:40:46.289Z,29.00
2018-12-18T13:43:13.928Z,33.07
2018-12-18T13:45:41.544Z,33.40
2018-12-18T13:48:09.088Z,29.47
2018-12-18T13:50:36.855Z,26.17
2018-12-18T13:53:04.406Z,22.63
2018-12-18T13:55:36.615Z,25.00
2018-12-18T13:58:01.536Z,22.50
2018-12-18T14:00:29.081Z,20.83
2018-12-18T14:02:56.648Z,22.87
2018-12-18T14:05:24.236Z,25.33
2018-12-18T14:07:51.736Z,19.50
2018-12-18T14:10:19.346Z,24.93
2018-12-18T14:12:52.701Z,20.87
2018-12-18T14:15:20.271Z,23.23
2018-12-18T14:17:47.807Z,20.80
2018-12-18T14:20:15.358Z,21.43
2018-12-18T14:22:42.918Z,20.73
2018-12-18T14:25:10.437Z,21.47
2018-12-18T14:27:38.289Z,22.23
2018-12-18T14:30:06.251Z,21.00
2018-12-18T14:32:33.827Z,20.40
2018-12-18T14:35:01.367Z,24.57
2018-12-18T14:37:28.954Z,21.40
2018-12-18T14:39:56.521Z,19.00
2018-12-18T14:42:24.044Z,19.30
2018-12-18T14:44:51.550Z,19.37
2018-12-18T14:47:19.173Z,20.23
2018-12-18T14:49:46.699Z,18.83
2018-12-18T14:52:14.231Z,20.17
2018-12-18T14:54:41.789Z,18.53
2018-12-18T14:57:09.551Z,22.63
2018-12-18T14:59:37.175Z,20.47
2018-12-18T15:02:04.707Z,19.23
2018-12-18T15:04:32.339Z,19.67
2018-12-18T15:07:02.876Z,19.17
2018-12-18T15:09:29.441Z,20.33
2018-12-18T15:11:57.023Z,19.87
2018-12-18T15:14:24.558Z,21.67
2018-12-18T15:16:52.104Z,20.20
2018-12-18T15:19:19.633Z,22.13
2018-12-18T15:21:47.164Z,21.53
2018-12-18T15:24:14.728Z,17.33
2018-12-18T15:26:42.248Z,16.60
2018-12-18T15:29:10.711Z,20.70
2018-12-18T15:31:38.274Z,18.37
2018-12-18T15:34:06.150Z,18.20
2018-12-18T15:36:33.720Z,18.27
2018-12-18T15:39:01.266Z,20.27
2018-12-18T15:41:28.808Z,16.57
2018-12-18T15:43:56.420Z,17.80
2018-12-18T15:46:23.966Z,20.10
2018-12-18T15:48:51.553Z,19.60
2018-12-18T15:51:19.091Z,23.15
2018-12-18T15:53:46.711Z,18.87
2018-12-18T15:56:14.390Z,19.83
2018-12-18T15:58:42.279Z,20.33
2018-12-18T16:03:43.692Z,21.57
2018-12-18T16:06:11.389Z,18.97
2018-12-18T16:08:38.944Z,18.87
2018-12-18T16:11:06.561Z,20.30
2018-12-18T16:13:34.126Z,19.60
2018-12-18T16:16:01.917Z,19.43
2018-12-18T16:18:29.427Z,20.40
2018-12-18T16:20:56.979Z,19.33
2018-12-18T16:23:24.502Z,16.57
2018-12-18T16:25:52.034Z,18.70
2018-12-18T16:28:19.549Z,18.27
2018-12-18T16:30:47.112Z,23.77
2018-12-18T16:33:14.632Z,19.07
2018-12-18T16:35:46.114Z,20.97
2018-12-18T16:38:13.612Z,17.27
2018-12-18T16:40:41.156Z,18.10
2018-12-18T16:43:08.708Z,19.43
2018-12-18T16:45:36.236Z,20.47
2018-12-18T16:48:03.805Z,19.13
2018-12-18T16:50:31.371Z,14.53
2018-12-18T16:52:58.894Z,17.90
2018-12-18T16:55:26.494Z,20.17
2018-12-18T16:57:54.061Z,22.20
2018-12-18T17:00:21.639Z,17.23
2018-12-18T17:02:49.229Z,16.60
2018-12-18T17:05:17.343Z,16.63
2018-12-18T17:07:45.374Z,18.40
2018-12-18T17:10:13.749Z,19.73
2018-12-18T17:12:43.248Z,16.93
2018-12-18T17:15:10.774Z,18.10
2018-12-18T17:17:38.410Z,15.30
2018-12-18T17:20:06.826Z,15.23
2018-12-18T17:22:34.352Z,15.50
2018-12-18T17:25:01.894Z,18.30
2018-12-18T17:27:29.515Z,20.60
2018-12-18T17:29:57.054Z,16.63
2018-12-18T17:32:25.398Z,17.20
2018-12-18T17:34:53.154Z,20.03
2018-12-18T17:37:22.902Z,15.03
2018-12-18T17:39:50.433Z,17.10
2018-12-18T17:42:17.958Z,17.10
2018-12-18T17:44:46.037Z,12.90
2018-12-18T17:47:13.569Z,14.73
2018-12-18T17:49:41.108Z,13.83
2018-12-18T17:52:09.059Z,14.27
2018-12-18T17:54:36.670Z,13.27
2018-12-18T17:57:04.197Z,16.17
2018-12-18T17:59:31.742Z,14.43
2018-12-18T18:01:59.378Z,14.43
2018-12-18T18:04:26.972Z,15.37
2018-12-18T18:06:54.547Z,16.37
2018-12-18T18:09:22.901Z,14.87
2018-12-18T18:11:50.434Z,14.47
2018-12-18T18:14:18.915Z,15.77
2018-12-18T18:16:46.445Z,15.77
2018-12-18T18:19:14.063Z,17.70
2018-12-18T18:21:41.671Z,16.50
2018-12-18T18:24:09.207Z,14.47
2018-12-18T18:26:37.083Z,14.30
2018-12-18T18:29:04.751Z,13.70
2018-12-18T18:31:33.860Z,18.40
2018-12-18T18:34:01.414Z,16.70
2018-12-18T18:36:28.963Z,16.40
2018-12-18T18:38:56.824Z,13.27
2018-12-18T18:41:25.793Z,17.30
2018-12-18T18:43:54.026Z,13.07
2018-12-18T18:46:21.558Z,14.87
2018-12-18T18:48:49.623Z,15.37
2018-12-18T18:51:18.033Z,15.73
2018-12-18T18:53:45.830Z,10.83
2018-12-18T18:56:14.929Z,14.53
2018-12-18T18:58:42.468Z,14.83
2018-12-18T19:01:10.161Z,12.80
2018-12-18T19:03:39.159Z,14.30
2018-12-18T19:06:06.753Z,14.83
2018-12-18T19:08:35.554Z,12.83
2018-12-18T19:11:04.867Z,19.83
2018-12-18T19:13:35.443Z,12.37
2018-12-18T19:16:03.114Z,12.57
2018-12-18T19:18:30.722Z,12.70
2018-12-18T19:20:58.248Z,13.67
2018-12-18T19:23:25.790Z,10.80
2018-12-18T19:25:54.050Z,10.47
2018-12-18T19:28:21.810Z,13.10
2018-12-18T19:30:49.365Z,13.23
2018-12-18T19:33:16.914Z,12.87
2018-12-18T19:35:46.228Z,11.47
2018-12-18T19:38:15.472Z,10.47
2018-12-18T19:40:42.992Z,12.27
2018-12-18T19:43:10.554Z,14.87
2018-12-18T19:45:38.428Z,13.67
2018-12-18T19:48:06.447Z,9.60
2018-12-18T19:50:34.823Z,11.57
2018-12-18T19:53:03.148Z,10.30
2018-12-18T19:55:30.964Z,10.83
2018-12-18T19:57:58.663Z,12.23
2018-12-18T20:00:26.244Z,12.00
2018-12-18T20:02:54.747Z,11.43
2018-12-18T20:05:22.820Z,14.65
2018-12-18T20:07:50.353Z,13.97
2018-12-18T20:10:17.935Z,13.00
2018-12-18T20:12:45.480Z,13.03
2018-12-18T20:15:16.091Z,13.23
2018-12-18T20:17:45.689Z,11.87
2018-12-18T20:20:14.089Z,13.57
2018-12-18T20:22:42.469Z,14.27
2018-12-18T20:25:10.175Z,14.10
2018-12-18T20:27:39.390Z,12.45
2018-12-18T20:30:07.128Z,9.73
2018-12-18T20:32:34.704Z,12.90
2018-12-18T20:35:02.261Z,15.33
2018-12-18T20:37:30.623Z,16.93
2018-12-18T20:39:58.191Z,14.00
2018-12-18T20:42:28.147Z,14.57
2018-12-18T20:44:55.683Z,11.30
2018-12-18T20:47:23.458Z,17.73
2018-12-18T20:49:51.019Z,15.00
2018-12-18T20:52:18.697Z,15.03
2018-12-18T20:54:46.238Z,17.20
2018-12-18T20:57:17.641Z,11.30
2018-12-18T20:59:45.218Z,14.00
2018-12-18T21:02:12.806Z,13.77
2018-12-18T21:04:40.358Z,15.57
2018-12-18T21:07:07.911Z,13.20
2018-12-18T21:09:35.469Z,10.23
2018-12-18T21:12:05.917Z,15.50
2018-12-18T21:14:33.506Z,15.53
2018-12-18T21:17:01.054Z,17.80
2018-12-18T21:19:29.373Z,15.23
2018-12-18T21:21:56.942Z,13.47
2018-12-18T21:24:24.470Z,13.37
2018-12-18T21:26:52.020Z,16.80
2018-12-18T21:29:19.540Z,13.53
2018-12-18T21:31:47.104Z,13.23
2018-12-18T21:34:14.954Z,15.10
2018-12-18T21:36:42.506Z,16.70
2018-12-18T21:39:10.039Z,18.03
2018-12-18T21:41:39.500Z,14.17
2018-12-18T21:44:07.372Z,13.98
2018-12-18T21:46:34.991Z,13.73
2018-12-18T21:49:02.523Z,13.53
2018-12-18T21:51:30.078Z,16.53
2018-12-18T21:53:59.604Z,13.10
2018-12-18T21:56:27.642Z,17.90
2018-12-18T21:58:55.183Z,16.63
2018-12-18T22:01:22.750Z,16.23
2018-12-18T22:03:50.300Z,13.93
2018-12-18T22:06:17.856Z,13.57
2018-12-18T22:08:45.940Z,15.90
2018-12-18T22:11:13.551Z,14.23
2018-12-18T22:13:41.099Z,14.60
2018-12-18T22:16:08.644Z,13.07
2018-12-18T22:18:36.328Z,14.63
2018-12-18T22:21:03.842Z,18.07
2018-12-18T22:23:31.374Z,14.03
2018-12-18T22:25:59.774Z,16.80
2018-12-18T22:28:27.305Z,18.73
2018-12-18T22:30:54.842Z,17.60
2018-12-18T22:33:22.543Z,17.90
2018-12-18T22:35:50.174Z,18.33
2018-12-18T22:38:17.744Z,17.20
2018-12-18T22:40:45.291Z,14.50
2018-12-18T22:43:12.841Z,15.20
2018-12-18T22:45:40.446Z,17.67
2018-12-18T22:48:08.003Z,18.07
2018-12-18T22:50:35.660Z,14.47
2018-12-18T22:53:03.181Z,19.17
2018-12-18T22:55:31.124Z,15.08
2018-12-18T22:57:59.436Z,17.57
2018-12-18T23:00:32.924Z,18.17
2018-12-18T23:03:01.378Z,20.00
2018-12-18T23:05:28.893Z,21.73
2018-12-18T23:07:56.389Z,20.17
2018-12-18T23:10:23.917Z,17.30
2018-12-18T23:12:51.434Z,21.63
2018-12-18T23:15:19.036Z,20.47
2018-12-18T23:17:46.532Z,21.33
2018-12-18T23:20:14.203Z,22.30
2018-12-18T23:22:41.730Z,19.30
2018-12-18T23:25:09.240Z,16.20
2018-12-18T23:27:36.791Z,16.60
2018-12-18T23:30:05.267Z,18.43
2018-12-18T23:32:32.787Z,17.20
2018-12-18T23:35:00.307Z,17.20
2018-12-18T23:37:27.796Z,18.20
2018-12-18T23:39:55.366Z,21.10
2018-12-18T23:42:23.006Z,18.00
2018-12-18T23:44:50.519Z,19.97
2018-12-18T23:47:18.047Z,16.07
2018-12-18T23:49:45.542Z,15.37
2018-12-18T23:52:13.288Z,15.73
2018-12-18T23:54:40.794Z,17.23
2018-12-18T23:57:08.332Z,15.60
2018-12-18T23:59:35.887Z,16.37
